Time;durP1;ratioP1;P1;durP2;ratioP2;P2;SDS_P1;SDS_P2;PMS_P1;PMS_P2;Temp;Humidity;BMP_temperature;BMP_pressure;BME280_temperature;BME280_humidity;BME280_pressure;Samples;Min_cycle;Max_cycle;Signal;HPM_P1;HPM_P2
2021/10/10 00:00:44;;;;;;;4.90;2.60;;;15.20;96.70;;;;;;5091384;28;20035;-78
2021/10/10 00:03:14;;;;;;;8.43;2.33;;;15.20;96.70;;;;;;5094470;28;20492;-78
2021/10/10 00:05:42;;;;;;;5.97;2.47;;;15.20;96.70;;;;;;5091079;28;20131;-78
2021/10/10 00:08:10;;;;;;;5.68;3.08;;;15.20;96.70;;;;;;5090191;28;20044;-78
2021/10/10 00:10:39;;;;;;;6.25;2.28;;;15.20;96.70;;;;;;5099283;28;20060;-78
2021/10/10 00:13:07;;;;;;;4.00;2.25;;;15.20;96.70;;;;;;5093013;28;20040;-78
2021/10/10 00:15:36;;;;;;;3.00;2.17;;;15.30;96.70;;;;;;5072217;28;20050;-77
2021/10/10 00:18:03;;;;;;;4.00;2.33;;;15.20;96.70;;;;;;5094201;28;20042;-78
2021/10/10 00:20:33;;;;;;;6.13;2.40;;;15.10;96.70;;;;;;5099364;28;20071;-78
2021/10/10 00:23:01;;;;;;;3.70;2.55;;;15.10;96.70;;;;;;5098088;28;20076;-78
2021/10/10 00:25:33;;;;;;;4.03;2.50;;;15.10;96.70;;;;;;5088294;28;20509;-78
2021/10/10 00:28:01;;;;;;;5.55;2.53;;;15.10;96.70;;;;;;5098379;28;20046;-78
2021/10/10 00:30:30;;;;;;;4.35;2.35;;;15.10;96.70;;;;;;5083758;28;20105;-77
2021/10/10 00:32:57;;;;;;;6.65;2.35;;;15.10;96.70;;;;;;5079745;28;20108;-78
2021/10/10 00:35:26;;;;;;;5.15;2.50;;;15.10;96.70;;;;;;5095154;28;20032;-78
2021/10/10 00:37:55;;;;;;;4.10;2.35;;;15.10;96.70;;;;;;5090899;28;21707;-78
2021/10/10 00:40:23;;;;;;;5.40;2.60;;;15.10;96.70;;;;;;5098348;28;20525;-78
2021/10/10 00:42:51;;;;;;;5.20;2.55;;;15.10;96.70;;;;;;5093364;28;20451;-78
2021/10/10 00:45:19;;;;;;;6.05;2.35;;;15.10;96.70;;;;;;5094325;28;20058;-77
2021/10/10 00:47:48;;;;;;;9.77;2.80;;;15.00;96.70;;;;;;5086375;28;20047;-77
2021/10/10 00:50:16;;;;;;;6.70;2.40;;;15.00;96.70;;;;;;5093971;28;20046;-78
2021/10/10 00:52:44;;;;;;;4.55;2.47;;;15.00;96.70;;;;;;5088382;28;20263;-78
2021/10/10 00:55:14;;;;;;;4.55;2.67;;;15.00;96.70;;;;;;5093373;28;20434;-78
2021/10/10 00:57:47;;;;;;;6.28;2.65;;;15.00;96.70;;;;;;5093535;28;20097;-78
2021/10/10 01:00:16;;;;;;;4.30;2.75;;;15.00;96.70;;;;;;5095287;28;20043;-80
2021/10/10 01:02:45;;;;;;;3.63;2.40;;;15.00;96.70;;;;;;5091208;28;20119;-79
2021/10/10 01:05:14;;;;;;;6.78;2.22;;;15.00;96.70;;;;;;5090972;28;20054;-80
2021/10/10 01:07:44;;;;;;;7.32;2.60;;;15.00;96.70;;;;;;5084401;28;20047;-80
2021/10/10 01:10:14;;;;;;;6.88;2.88;;;15.00;96.70;;;;;;5090703;28;20040;-80
2021/10/10 01:12:45;;;;;;;3.22;2.45;;;15.00;96.70;;;;;;5086054;28;20055;-80
2021/10/10 01:15:13;;;;;;;5.50;2.53;;;15.00;96.70;;;;;;5089298;28;20533;-80
2021/10/10 01:17:42;;;;;;;8.27;2.60;;;14.90;96.70;;;;;;5073375;28;20556;-80
2021/10/10 01:20:11;;;;;;;6.22;2.55;;;14.90;96.70;;;;;;5093191;28;20607;-80
2021/10/10 01:22:41;;;;;;;7.40;2.47;;;14.90;96.70;;;;;;5074965;28;20048;-80
2021/10/10 01:25:09;;;;;;;5.00;2.83;;;14.90;96.70;;;;;;5098546;28;20109;-80
2021/10/10 01:27:38;;;;;;;6.35;3.05;;;14.90;96.70;;;;;;5096433;28;20047;-80
2021/10/10 01:30:06;;;;;;;3.90;2.60;;;14.90;96.70;;;;;;5089491;28;20043;-81
2021/10/10 01:32:35;;;;;;;5.03;2.55;;;14.80;96.70;;;;;;5097828;28;20032;-80
2021/10/10 01:35:04;;;;;;;4.13;2.78;;;14.80;96.70;;;;;;5074261;28;20052;-80
2021/10/10 01:37:32;;;;;;;5.72;2.50;;;14.80;96.70;;;;;;5096601;28;20112;-80
2021/10/10 01:40:01;;;;;;;6.95;2.45;;;14.80;96.70;;;;;;5097257;28;21169;-81
2021/10/10 01:42:29;;;;;;;10.93;4.38;;;14.80;96.70;;;;;;5077770;28;20501;-79
2021/10/10 01:44:57;;;;;;;5.47;3.13;;;14.80;96.70;;;;;;5081665;28;20092;-77
2021/10/10 01:47:25;;;;;;;6.22;2.70;;;14.80;96.70;;;;;;5092121;28;20281;-78
2021/10/10 01:49:53;;;;;;;4.10;2.70;;;14.80;96.70;;;;;;5095491;28;20039;-78
2021/10/10 01:52:22;;;;;;;4.97;2.40;;;14.70;96.70;;;;;;5091974;28;20036;-78
2021/10/10 01:54:50;;;;;;;8.07;3.00;;;14.70;96.70;;;;;;5080746;28;20259;-77
2021/10/10 01:57:19;;;;;;;5.97;2.70;;;14.60;96.70;;;;;;5087428;28;20044;-78
2021/10/10 01:59:47;;;;;;;5.40;2.88;;;14.60;96.70;;;;;;5096764;28;20172;-77
2021/10/10 02:02:15;;;;;;;6.25;2.58;;;14.60;96.70;;;;;;5087211;28;20054;-78
2021/10/10 02:04:44;;;;;;;6.05;2.80;;;14.60;96.70;;;;;;5087368;28;20043;-78
2021/10/10 02:07:12;;;;;;;6.78;3.03;;;14.60;96.70;;;;;;5093920;28;20329;-78
2021/10/10 02:09:42;;;;;;;7.25;2.72;;;14.60;96.70;;;;;;5085560;28;20069;-80
2021/10/10 02:12:10;;;;;;;6.90;2.97;;;14.60;96.70;;;;;;5081165;28;20394;-80
2021/10/10 02:14:40;;;;;;;6.47;3.05;;;14.60;96.70;;;;;;5086498;28;20050;-78
2021/10/10 02:17:09;;;;;;;6.45;2.90;;;14.50;96.70;;;;;;5092090;28;20055;-78
2021/10/10 02:19:37;;;;;;;5.68;2.92;;;14.50;96.70;;;;;;5090033;28;20040;-78
2021/10/10 02:22:05;;;;;;;5.72;3.00;;;14.50;96.70;;;;;;5089722;28;20044;-77
2021/10/10 02:24:33;;;;;;;5.72;2.88;;;14.50;96.70;;;;;;5084548;28;20497;-77
2021/10/10 02:27:01;;;;;;;5.90;2.70;;;14.50;96.70;;;;;;5092633;28;20505;-79
2021/10/10 02:29:31;;;;;;;4.78;2.67;;;14.40;96.70;;;;;;5091377;28;20469;-78
2021/10/10 02:32:01;;;;;;;7.88;2.85;;;14.40;96.70;;;;;;5083756;28;20465;-80
2021/10/10 02:34:29;;;;;;;6.97;3.08;;;14.50;96.70;;;;;;5099195;28;20040;-80
2021/10/10 02:36:57;;;;;;;8.00;3.10;;;14.40;96.70;;;;;;5092507;28;20050;-80
2021/10/10 02:39:25;;;;;;;9.25;3.15;;;14.40;96.70;;;;;;5082311;28;20086;-80
2021/10/10 02:41:53;;;;;;;5.38;2.97;;;14.40;96.70;;;;;;5086833;28;20036;-80
2021/10/10 02:44:21;;;;;;;5.97;3.65;;;14.40;96.70;;;;;;5089176;28;20068;-79
2021/10/10 02:46:49;;;;;;;5.75;3.13;;;14.40;96.70;;;;;;5092169;28;20039;-80
2021/10/10 02:49:19;;;;;;;5.38;3.10;;;14.40;96.70;;;;;;5091217;28;20207;-80
2021/10/10 02:51:47;;;;;;;5.03;2.92;;;14.40;96.70;;;;;;5080783;28;20504;-80
2021/10/10 02:54:16;;;;;;;5.93;3.17;;;14.40;96.70;;;;;;5082953;27;20059;-80
2021/10/10 02:56:44;;;;;;;4.38;2.55;;;14.40;96.70;;;;;;5078094;27;20075;-80
2021/10/10 02:59:12;;;;;;;8.13;3.30;;;14.40;96.70;;;;;;5080322;28;20063;-80
2021/10/10 03:01:40;;;;;;;4.85;3.03;;;14.40;96.70;;;;;;5096912;28;20043;-80
2021/10/10 03:04:12;;;;;;;6.55;3.10;;;14.40;96.70;;;;;;5092789;27;20050;-80
2021/10/10 03:06:42;;;;;;;4.45;2.78;;;14.40;96.70;;;;;;5108483;27;20040;-80
2021/10/10 03:09:11;;;;;;;5.75;3.30;;;14.40;96.70;;;;;;5089275;27;20036;-79
2021/10/10 03:11:39;;;;;;;6.10;3.22;;;14.30;96.70;;;;;;5092144;28;20386;-80
2021/10/10 03:14:07;;;;;;;5.20;2.70;;;14.30;96.70;;;;;;5085361;27;20412;-80
2021/10/10 03:16:35;;;;;;;6.07;2.85;;;14.30;96.70;;;;;;5084884;27;20054;-80
2021/10/10 03:19:04;;;;;;;6.07;3.00;;;14.30;96.70;;;;;;5092491;28;20474;-80
2021/10/10 03:21:32;;;;;;;5.13;2.95;;;14.30;96.70;;;;;;5106491;27;20081;-80
2021/10/10 03:24:02;;;;;;;4.93;2.90;;;14.30;96.70;;;;;;5093447;28;20557;-80
2021/10/10 03:26:30;;;;;;;7.63;3.05;;;14.30;96.70;;;;;;5095335;27;20047;-80
2021/10/10 03:28:59;;;;;;;6.35;2.60;;;14.30;96.70;;;;;;5094798;27;20463;-80
2021/10/10 03:31:27;;;;;;;9.25;3.30;;;14.30;96.70;;;;;;5110703;27;20138;-80
2021/10/10 03:33:55;;;;;;;6.35;3.70;;;14.20;96.70;;;;;;5111778;28;20035;-81
2021/10/10 03:36:24;;;;;;;5.35;3.28;;;14.20;96.70;;;;;;5091920;28;20047;-80
2021/10/10 03:38:52;;;;;;;5.45;3.17;;;14.20;96.70;;;;;;5099557;28;20400;-80
2021/10/10 03:41:21;;;;;;;7.80;3.50;;;14.20;96.70;;;;;;5112545;28;20104;-80
2021/10/10 03:43:50;;;;;;;5.88;3.10;;;14.20;96.70;;;;;;5094866;28;20570;-80
2021/10/10 03:46:18;;;;;;;6.00;3.20;;;14.10;96.70;;;;;;5094932;28;20501;-80
2021/10/10 03:48:47;;;;;;;5.65;3.00;;;14.20;96.70;;;;;;5094110;28;20063;-80
2021/10/10 03:51:17;;;;;;;5.32;3.10;;;14.10;96.70;;;;;;5086386;28;20154;-78
2021/10/10 03:56:33;;;;;;;8.05;3.38;;;13.90;96.70;;;;;;5106476;28;20135;-77
2021/10/10 03:59:02;;;;;;;4.80;2.70;;;14.10;96.70;;;;;;5105573;28;20059;-78
2021/10/10 04:01:30;;;;;;;7.05;2.78;;;14.10;96.70;;;;;;5095462;28;20222;-78
2021/10/10 04:03:59;;;;;;;6.45;3.20;;;14.00;96.70;;;;;;5093328;28;20043;-78
2021/10/10 04:06:27;;;;;;;4.75;2.92;;;13.60;96.70;;;;;;5086759;28;20050;-78
2021/10/10 04:08:55;;;;;;;5.60;2.95;;;13.30;96.70;;;;;;5095378;28;20039;-78
2021/10/10 04:11:23;;;;;;;8.55;3.03;;;13.30;96.70;;;;;;5108350;28;20031;-78
2021/10/10 04:13:53;;;;;;;5.53;3.10;;;13.40;96.70;;;;;;5088457;28;20577;-80
2021/10/10 04:16:21;;;;;;;5.60;3.17;;;13.30;96.70;;;;;;5086549;28;20096;-80
2021/10/10 04:18:50;;;;;;;6.22;3.15;;;13.20;96.70;;;;;;5114521;28;20108;-79
2021/10/10 04:21:18;;;;;;;4.80;3.20;;;13.10;96.70;;;;;;5091133;28;20066;-80
2021/10/10 04:23:46;;;;;;;5.95;3.17;;;13.10;96.70;;;;;;5089769;28;20047;-79
2021/10/10 04:26:14;;;;;;;4.05;2.90;;;13.20;96.70;;;;;;5104174;28;20040;-80
2021/10/10 04:28:44;;;;;;;7.22;2.95;;;13.10;96.70;;;;;;5109255;28;20043;-80
2021/10/10 04:31:16;;;;;;;6.32;3.20;;;13.10;96.70;;;;;;5090671;28;20558;-80
2021/10/10 04:33:44;;;;;;;5.70;3.45;;;13.20;96.70;;;;;;5091842;28;20055;-79
2021/10/10 04:36:12;;;;;;;8.20;3.00;;;13.10;96.70;;;;;;5088578;28;20289;-80
2021/10/10 04:38:40;;;;;;;5.43;2.85;;;13.10;96.70;;;;;;5090670;28;20130;-80
2021/10/10 04:41:09;;;;;;;8.27;3.10;;;13.20;96.70;;;;;;5084996;28;20143;-80
2021/10/10 04:43:36;;;;;;;8.50;3.70;;;13.40;96.70;;;;;;5089253;28;20043;-80
2021/10/10 04:46:05;;;;;;;7.07;2.90;;;13.40;96.70;;;;;;5095952;27;20055;-80
2021/10/10 04:48:34;;;;;;;7.78;3.42;;;13.30;96.70;;;;;;5085889;28;20062;-80
2021/10/10 04:51:03;;;;;;;4.18;3.10;;;13.30;96.70;;;;;;5096778;27;20050;-80
2021/10/10 04:53:31;;;;;;;5.25;3.13;;;13.40;96.70;;;;;;5110518;27;20046;-80
2021/10/10 04:55:59;;;;;;;6.43;2.70;;;13.40;96.70;;;;;;5092160;28;20067;-81
2021/10/10 04:58:27;;;;;;;8.20;3.00;;;13.40;96.70;;;;;;5090565;28;20049;-80
2021/10/10 05:00:57;;;;;;;5.95;2.78;;;13.50;96.70;;;;;;5094290;28;20207;-80
2021/10/10 05:03:26;;;;;;;6.00;2.75;;;13.50;96.70;;;;;;5085439;28;20043;-80
2021/10/10 05:05:55;;;;;;;4.82;3.28;;;13.40;96.70;;;;;;5092127;28;20043;-80
2021/10/10 05:08:24;;;;;;;6.80;2.90;;;13.40;96.70;;;;;;5104464;27;20063;-78
2021/10/10 05:10:52;;;;;;;7.10;3.05;;;13.30;96.70;;;;;;5097615;27;20035;-77
2021/10/10 05:13:20;;;;;;;7.68;3.15;;;13.20;96.70;;;;;;5099101;28;20035;-77
2021/10/10 05:15:48;;;;;;;7.72;3.67;;;13.20;96.70;;;;;;5095476;27;20508;-78
2021/10/10 05:18:17;;;;;;;5.32;2.70;;;13.20;96.70;;;;;;5102415;27;20099;-78
2021/10/10 05:20:45;;;;;;;4.57;2.78;;;13.10;96.70;;;;;;5109238;27;20377;-77
2021/10/10 05:23:15;;;;;;;6.18;2.92;;;13.00;96.70;;;;;;5112316;27;20101;-78
2021/10/10 05:25:44;;;;;;;5.90;3.17;;;13.00;96.70;;;;;;5114568;27;20500;-78
2021/10/10 05:28:12;;;;;;;7.88;3.38;;;13.00;96.70;;;;;;5094551;27;20190;-78
2021/10/10 05:30:41;;;;;;;7.88;3.35;;;13.00;96.70;;;;;;5091151;27;20044;-78
2021/10/10 05:33:09;;;;;;;3.42;2.95;;;13.10;96.70;;;;;;5113605;27;20115;-77
2021/10/10 05:35:37;;;;;;;8.40;3.28;;;13.10;96.70;;;;;;5108024;27;20040;-77
2021/10/10 05:38:05;;;;;;;7.45;3.85;;;13.00;96.70;;;;;;5096409;28;20031;-78
2021/10/10 05:40:36;;;;;;;7.90;3.17;;;12.90;96.70;;;;;;5091786;27;20126;-77
2021/10/10 05:43:04;;;;;;;6.55;3.20;;;12.90;96.70;;;;;;5084489;28;20043;-77
2021/10/10 05:45:33;;;;;;;6.47;3.45;;;12.90;96.70;;;;;;5108605;27;20044;-78
2021/10/10 05:48:01;;;;;;;7.07;3.53;;;12.90;96.70;;;;;;5112800;27;20050;-78
2021/10/10 05:50:30;;;;;;;6.30;3.00;;;12.80;96.70;;;;;;5075725;28;20050;-78
2021/10/10 05:53:06;;;;;;;5.05;2.92;;;12.90;96.70;;;;;;5098394;27;20047;-78
2021/10/10 05:55:40;;;;;;;7.22;3.60;;;12.90;96.70;;;;;;5082203;27;20474;-77
2021/10/10 05:58:15;;;;;;;7.53;3.40;;;13.00;96.70;;;;;;5079774;28;20096;-77
2021/10/10 06:00:43;;;;;;;4.55;3.00;;;13.00;96.70;;;;;;5092093;27;20096;-78
2021/10/10 06:03:11;;;;;;;7.97;3.50;;;13.00;96.70;;;;;;5115348;27;20043;-78
2021/10/10 06:05:40;;;;;;;5.78;2.95;;;13.10;96.70;;;;;;5106387;27;20032;-77
2021/10/10 06:08:08;;;;;;;7.15;3.30;;;13.10;96.70;;;;;;5093365;28;20040;-77
2021/10/10 06:10:38;;;;;;;7.00;3.20;;;13.10;96.70;;;;;;5088683;27;20051;-78
2021/10/10 06:13:07;;;;;;;6.13;3.10;;;13.40;96.70;;;;;;5090580;28;20043;-78
2021/10/10 06:15:36;;;;;;;7.63;3.03;;;13.50;96.70;;;;;;5097056;27;20053;-78
2021/10/10 06:18:08;;;;;;;4.80;2.65;;;13.50;96.70;;;;;;5096946;28;20119;-77
2021/10/10 06:20:36;;;;;;;6.13;3.47;;;13.70;96.70;;;;;;5093479;27;20500;-77
2021/10/10 06:23:05;;;;;;;8.05;3.03;;;13.70;96.70;;;;;;5077614;28;20058;-77
2021/10/10 06:25:33;;;;;;;6.40;3.40;;;13.80;96.70;;;;;;5098238;28;20036;-77
2021/10/10 06:28:03;;;;;;;6.35;3.08;;;13.90;96.70;;;;;;5116232;27;20071;-78
2021/10/10 06:30:36;;;;;;;6.30;2.88;;;13.80;96.70;;;;;;5111276;27;20049;-78
2021/10/10 06:33:05;;;;;;;5.90;3.13;;;13.90;96.70;;;;;;5089847;28;20097;-78
2021/10/10 06:35:34;;;;;;;6.82;3.25;;;13.90;96.70;;;;;;5102550;27;20039;-78
2021/10/10 06:38:02;;;;;;;8.20;2.97;;;14.10;96.70;;;;;;5096203;27;20051;-78
2021/10/10 06:40:50;;;;;;;6.18;2.63;;;14.10;96.70;;;;;;5078597;28;20061;-78
2021/10/10 06:43:20;;;;;;;3.88;2.78;;;14.30;96.70;;;;;;5076471;28;20413;-78
2021/10/10 06:45:48;;;;;;;8.07;2.90;;;14.30;96.70;;;;;;5079278;28;20048;-78
2021/10/10 06:48:16;;;;;;;6.97;3.13;;;14.40;96.70;;;;;;5070825;28;20043;-79
2021/10/10 06:50:44;;;;;;;4.68;2.83;;;14.40;95.80;;;;;;5078852;28;20043;-78
2021/10/10 06:53:13;;;;;;;6.90;3.10;;;14.50;94.70;;;;;;5061556;28;20040;-78
2021/10/10 06:55:40;;;;;;;3.67;2.60;;;14.60;94.90;;;;;;5076638;28;20071;-78
2021/10/10 06:58:08;;;;;;;5.30;2.92;;;14.60;94.50;;;;;;5090366;28;20044;-78
2021/10/10 07:00:38;;;;;;;6.50;2.80;;;14.60;95.30;;;;;;5078627;28;20117;-78
2021/10/10 07:03:06;;;;;;;4.95;2.92;;;14.60;96.30;;;;;;5082952;28;20453;-78
2021/10/10 07:05:34;;;;;;;5.53;2.83;;;14.60;95.90;;;;;;5092789;28;20052;-78
2021/10/10 07:08:03;;;;;;;7.88;3.17;;;14.70;96.50;;;;;;5070341;28;20489;-78
2021/10/10 07:10:32;;;;;;;10.55;2.90;;;14.70;96.70;;;;;;5091390;28;20050;-78
2021/10/10 07:13:00;;;;;;;8.52;3.30;;;14.70;96.70;;;;;;5087679;28;20044;-80
2021/10/10 07:15:28;;;;;;;5.40;3.00;;;14.70;96.70;;;;;;5073962;28;20094;-78
2021/10/10 07:18:00;;;;;;;6.88;3.22;;;14.80;96.70;;;;;;5083358;28;20177;-78
2021/10/10 07:20:50;;;;;;;7.32;3.20;;;14.80;96.70;;;;;;5091101;27;20107;-77
2021/10/10 07:23:30;;;;;;;4.75;2.83;;;14.90;96.60;;;;;;5094659;27;20047;-78
2021/10/10 07:25:59;;;;;;;6.03;3.05;;;14.90;96.30;;;;;;5083425;27;20082;-78
2021/10/10 07:28:28;;;;;;;6.45;3.25;;;15.00;96.00;;;;;;5086200;28;20039;-78
2021/10/10 07:30:58;;;;;;;7.57;3.53;;;15.00;95.40;;;;;;5076588;27;20047;-76
2021/10/10 07:33:27;;;;;;;6.85;3.55;;;15.00;95.00;;;;;;5087802;28;20070;-76
2021/10/10 07:35:55;;;;;;;8.18;3.70;;;15.00;95.10;;;;;;5090915;28;20412;-76
2021/10/10 07:38:23;;;;;;;5.78;3.53;;;15.10;95.40;;;;;;5081127;28;20044;-76
2021/10/10 07:40:52;;;;;;;5.03;2.95;;;15.20;95.50;;;;;;5107638;28;20035;-76
2021/10/10 07:43:23;;;;;;;7.72;3.15;;;15.20;94.80;;;;;;5089056;28;20046;-75
2021/10/10 07:45:52;;;;;;;4.47;2.78;;;15.20;94.50;;;;;;5091112;28;20039;-75
2021/10/10 07:48:20;;;;;;;6.32;3.08;;;15.20;94.10;;;;;;5105448;28;20043;-76
2021/10/10 07:50:51;;;;;;;6.78;2.85;;;15.20;93.80;;;;;;5082747;28;20134;-76
2021/10/10 07:53:20;;;;;;;7.20;2.90;;;15.30;94.40;;;;;;5074383;28;20044;-76
2021/10/10 07:55:48;;;;;;;7.65;3.10;;;15.30;94.50;;;;;;5100866;28;20059;-76
2021/10/10 07:58:16;;;;;;;4.60;2.63;;;15.40;94.10;;;;;;5094118;28;20042;-76
2021/10/10 08:00:44;;;;;;;4.32;2.50;;;15.40;92.80;;;;;;5094903;28;20044;-76
2021/10/10 08:03:12;;;;;;;11.80;3.10;;;15.40;92.90;;;;;;5095255;28;20487;-76
2021/10/10 08:05:42;;;;;;;5.63;2.30;;;15.40;93.20;;;;;;5108741;28;20040;-75
2021/10/10 08:08:12;;;;;;;8.50;2.83;;;15.40;93.10;;;;;;5100444;28;20552;-75
2021/10/10 08:10:40;;;;;;;8.43;3.60;;;15.40;93.30;;;;;;5086832;28;20039;-76
2021/10/10 08:13:08;;;;;;;4.18;2.90;;;15.50;92.80;;;;;;5091181;28;20065;-76
2021/10/10 08:15:37;;;;;;;4.95;2.65;;;15.50;92.70;;;;;;5087936;28;20048;-76
2021/10/10 08:18:05;;;;;;;9.65;3.00;;;15.60;93.00;;;;;;5112668;28;20075;-75
2021/10/10 08:20:34;;;;;;;4.38;2.88;;;15.60;93.40;;;;;;5086984;27;20388;-76
2021/10/10 08:23:02;;;;;;;5.03;2.60;;;15.70;93.20;;;;;;5097426;27;20046;-76
2021/10/10 08:25:32;;;;;;;4.75;2.40;;;15.70;92.40;;;;;;5091877;28;20040;-76
2021/10/10 08:28:00;;;;;;;5.53;2.35;;;15.70;92.00;;;;;;5110886;27;20047;-76
2021/10/10 08:30:29;;;;;;;6.47;2.22;;;15.80;91.70;;;;;;5098924;27;20042;-76
2021/10/10 08:32:57;;;;;;;6.43;2.35;;;15.90;91.30;;;;;;5116738;27;20047;-76
2021/10/10 08:35:25;;;;;;;5.47;2.67;;;15.90;91.90;;;;;;5091526;27;20039;-76
2021/10/10 08:37:54;;;;;;;13.50;7.00;;;15.90;91.20;;;;;;5090521;28;20097;-76
2021/10/10 08:40:22;;;;;;;7.30;3.95;;;16.00;90.80;;;;;;5109080;27;20235;-80
2021/10/10 08:42:57;;;;;;;18.40;9.00;;;16.00;90.50;;;;;;5095221;27;20047;-74
2021/10/10 08:45:30;;;;;;;10.52;5.18;;;16.10;91.10;;;;;;5088856;28;20097;-74
2021/10/10 08:47:58;;;;;;;9.13;4.88;;;16.10;92.90;;;;;;5116103;27;20488;-74
2021/10/10 08:50:28;;;;;;;8.68;5.78;;;16.10;91.60;;;;;;5094182;27;20138;-73
2021/10/10 08:53:00;;;;;;;7.20;3.17;;;16.10;91.00;;;;;;5099323;27;20031;-75
2021/10/10 08:55:31;;;;;;;6.20;3.75;;;16.20;90.40;;;;;;5086138;27;20155;-74
2021/10/10 08:58:03;;;;;;;6.63;2.63;;;16.20;90.20;;;;;;5110001;27;20039;-75
2021/10/10 09:00:33;;;;;;;10.45;2.83;;;16.20;89.40;;;;;;5082090;27;20393;-74
2021/10/10 09:03:09;;;;;;;6.40;2.55;;;16.30;89.30;;;;;;5114835;27;20084;-74
2021/10/10 09:05:49;;;;;;;6.32;2.08;;;16.40;89.30;;;;;;5094899;28;20086;-73
2021/10/10 09:08:18;;;;;;;7.03;2.60;;;16.50;89.40;;;;;;5090682;28;20047;-73
2021/10/10 09:10:57;;;;;;;5.03;2.30;;;16.60;89.50;;;;;;5082180;27;20039;-74
2021/10/10 09:13:34;;;;;;;4.80;2.47;;;16.60;89.20;;;;;;5093219;27;20047;-77
2021/10/10 09:16:05;;;;;;;4.93;2.40;;;16.70;88.70;;;;;;5099844;27;20337;-75
2021/10/10 09:18:35;;;;;;;9.40;2.83;;;16.80;89.10;;;;;;5100460;27;20054;-76
2021/10/10 09:21:15;;;;;;;4.05;2.33;;;16.90;88.80;;;;;;5079741;28;20582;-75
2021/10/10 09:23:47;;;;;;;6.97;2.72;;;16.90;88.00;;;;;;5111439;27;20051;-80
2021/10/10 09:26:15;;;;;;;5.32;2.55;;;16.90;87.90;;;;;;5090862;27;20055;-77
2021/10/10 09:28:46;;;;;;;6.93;2.70;;;17.00;88.30;;;;;;5097172;27;20495;-77
2021/10/10 09:31:16;;;;;;;4.00;2.35;;;17.00;88.50;;;;;;5113678;27;20039;-77
2021/10/10 09:33:47;;;;;;;9.02;2.83;;;17.00;87.60;;;;;;5085848;27;20051;-78
2021/10/10 09:36:24;;;;;;;6.18;2.20;;;17.00;87.30;;;;;;5079960;27;20593;-81
2021/10/10 09:41:50;;;;;;;8.65;2.45;;;17.20;87.60;;;;;;5091707;28;20039;-79
2021/10/10 09:44:27;;;;;;;5.03;2.42;;;17.20;87.90;;;;;;5081561;27;20134;-78
2021/10/10 09:46:58;;;;;;;4.97;2.30;;;17.40;88.20;;;;;;5089881;28;20032;-79
2021/10/10 09:49:28;;;;;;;7.65;2.38;;;17.50;87.80;;;;;;5096735;27;20042;-78
2021/10/10 09:52:10;;;;;;;9.55;2.80;;;17.50;86.60;;;;;;5095119;27;20043;-75
2021/10/10 09:54:51;;;;;;;4.97;2.33;;;17.50;86.80;;;;;;5081275;28;20092;-75
2021/10/10 09:57:20;;;;;;;7.47;2.72;;;17.60;87.50;;;;;;5082663;28;20054;-77
2021/10/10 09:59:50;;;;;;;7.50;2.72;;;17.70;88.00;;;;;;5101360;27;20473;-77
2021/10/10 10:02:19;;;;;;;5.68;2.60;;;17.80;87.40;;;;;;5088892;28;20047;-81
2021/10/10 10:04:48;;;;;;;5.80;2.60;;;17.90;87.40;;;;;;5096437;28;20484;-82
2021/10/10 10:07:18;;;;;;;5.18;2.78;;;17.90;87.40;;;;;;5109449;27;20040;-80
2021/10/10 10:09:50;;;;;;;7.75;2.95;;;18.00;87.10;;;;;;5081606;27;20043;-76
2021/10/10 10:12:19;;;;;;;7.68;2.60;;;18.00;87.10;;;;;;5107121;27;20553;-78
2021/10/10 10:14:52;;;;;;;6.72;2.50;;;18.00;87.60;;;;;;5118891;27;20043;-78
2021/10/10 10:17:23;;;;;;;4.65;2.17;;;18.10;87.10;;;;;;5094236;27;20049;-80
2021/10/10 10:19:53;;;;;;;5.50;2.80;;;18.20;87.40;;;;;;5093997;27;20289;-87
2021/10/10 10:22:22;;;;;;;7.10;2.40;;;18.30;85.80;;;;;;5090866;27;20077;-81
2021/10/10 10:24:51;;;;;;;9.18;2.80;;;18.30;85.70;;;;;;5115139;27;20039;-85
2021/10/10 10:27:21;;;;;;;5.63;3.28;;;18.30;87.00;;;;;;5084998;28;20320;-79
2021/10/10 10:29:53;;;;;;;4.22;3.20;;;18.40;87.30;;;;;;5112432;27;20291;-78
2021/10/10 10:32:23;;;;;;;5.78;2.67;;;18.50;87.20;;;;;;5115169;27;20045;-79
2021/10/10 10:35:00;;;;;;;9.20;2.83;;;18.50;85.60;;;;;;5082447;28;20039;-79
2021/10/10 10:37:49;;;;;;;5.05;2.65;;;18.40;84.70;;;;;;5076942;27;20066;-85
2021/10/10 10:40:35;;;;;;;8.02;2.30;;;18.40;85.90;;;;;;5094138;27;20051;-84
2021/10/10 10:43:05;;;;;;;7.70;2.72;;;18.40;84.90;;;;;;5090340;28;20055;-82
2021/10/10 10:45:37;;;;;;;5.10;2.42;;;18.40;84.50;;;;;;5079376;27;20130;-85
2021/10/10 10:48:08;;;;;;;5.68;2.33;;;18.60;85.20;;;;;;5083492;27;20070;-80
2021/10/10 10:50:44;;;;;;;3.35;1.90;;;18.50;84.20;;;;;;5095536;27;20140;-81
2021/10/10 10:53:20;;;;;;;5.45;2.53;;;18.40;84.50;;;;;;5076217;27;20096;-81
2021/10/10 10:55:54;;;;;;;5.60;2.75;;;18.40;84.50;;;;;;5086195;28;20071;-80
2021/10/10 10:58:23;;;;;;;3.88;2.38;;;18.50;84.80;;;;;;5097652;28;21028;-80
2021/10/10 11:01:04;;;;;;;3.92;1.80;;;18.60;84.90;;;;;;5090312;28;20051;-79
2021/10/10 11:03:34;;;;;;;10.93;2.50;;;18.50;84.00;;;;;;5095346;28;20861;-79
2021/10/10 11:06:18;;;;;;;3.42;2.28;;;18.50;84.60;;;;;;5075582;28;20046;-79
2021/10/10 11:08:47;;;;;;;6.20;2.10;;;18.60;85.10;;;;;;5088484;28;20039;-80
2021/10/10 11:11:22;;;;;;;5.85;2.25;;;18.80;85.10;;;;;;5085001;28;20032;-82
2021/10/10 11:13:55;;;;;;;6.03;2.28;;;18.70;83.90;;;;;;5090298;28;20155;-79
2021/10/10 11:16:32;;;;;;;3.80;1.77;;;18.80;84.00;;;;;;5079141;28;20067;-85
2021/10/10 11:19:03;;;;;;;4.97;2.03;;;18.90;83.90;;;;;;5088644;28;20339;-83
2021/10/10 11:21:35;;;;;;;4.18;2.00;;;19.00;84.00;;;;;;5090231;28;20040;-84
2021/10/10 11:24:06;;;;;;;3.92;2.05;;;18.90;83.00;;;;;;5093223;28;20070;-82
2021/10/10 11:26:37;;;;;;;5.00;1.98;;;18.80;83.00;;;;;;5082148;28;20093;-76
2021/10/10 11:29:08;;;;;;;4.45;1.95;;;18.90;83.30;;;;;;5096683;28;20146;-80
2021/10/10 11:31:39;;;;;;;2.35;1.92;;;19.10;83.40;;;;;;5087945;28;20075;-81
2021/10/10 11:34:10;;;;;;;5.35;2.10;;;19.10;82.80;;;;;;5091033;28;20386;-80
2021/10/10 11:36:39;;;;;;;4.72;1.88;;;19.10;82.50;;;;;;5086735;28;20093;-79
2021/10/10 11:39:09;;;;;;;3.35;1.80;;;19.10;82.30;;;;;;5084936;28;20051;-80
2021/10/10 11:41:39;;;;;;;6.18;2.45;;;19.10;82.10;;;;;;5083289;28;20039;-79
2021/10/10 11:44:10;;;;;;;6.60;1.88;;;19.20;82.10;;;;;;5086451;28;20075;-80
2021/10/10 11:46:47;;;;;;;7.72;1.90;;;19.30;81.80;;;;;;5077026;28;20134;-80
2021/10/10 11:49:25;;;;;;;5.30;2.30;;;19.30;81.80;;;;;;5068853;28;20070;-81
2021/10/10 11:51:54;;;;;;;4.00;2.15;;;19.30;81.70;;;;;;5082465;28;20040;-80
2021/10/10 11:54:28;;;;;;;6.85;2.00;;;19.50;81.90;;;;;;5085763;28;20052;-82
2021/10/10 11:56:58;;;;;;;5.03;2.08;;;19.50;81.50;;;;;;5087836;28;20086;-78
2021/10/10 11:59:26;;;;;;;4.95;2.30;;;19.50;81.70;;;;;;5082277;28;20636;-79
2021/10/10 12:01:57;;;;;;;4.80;2.15;;;19.70;81.70;;;;;;5086114;28;20047;-77
2021/10/10 12:04:25;;;;;;;4.20;2.00;;;19.80;81.00;;;;;;5086584;28;20463;-77
2021/10/10 12:06:54;;;;;;;6.35;1.90;;;19.80;81.60;;;;;;5101362;28;20047;-77
2021/10/10 12:09:22;;;;;;;3.92;2.45;;;19.80;81.00;;;;;;5087372;28;20048;-77
2021/10/10 12:12:09;;;;;;;5.65;2.60;;;19.90;81.30;;;;;;5098506;28;20043;-77
2021/10/10 12:14:46;;;;;;;4.35;1.52;;;20.00;81.10;;;;;;5094459;28;20076;-77
2021/10/10 12:17:35;;;;;;;;;;;20.00;81.30;;;;;;5088106;28;20052;-77
2021/10/10 12:20:23;;;;;;;5.50;2.13;;;20.10;81.70;;;;;;5086606;28;19928;-77
2021/10/10 12:22:54;;;;;;;5.63;2.00;;;20.10;81.80;;;;;;5087041;28;20489;-78
2021/10/10 12:25:28;;;;;;;3.05;1.83;;;20.20;82.20;;;;;;5097592;28;20043;-77
2021/10/10 12:28:02;;;;;;;4.10;1.80;;;20.30;81.60;;;;;;5095051;28;20050;-77
2021/10/10 12:30:34;;;;;;;3.17;2.00;;;20.20;80.80;;;;;;5087832;28;20040;-80
2021/10/10 12:33:25;;;;;;;4.05;1.90;;;20.30;81.50;;;;;;5079487;28;20498;-81
2021/10/10 12:35:56;;;;;;;2.85;1.90;;;20.40;81.20;;;;;;5087698;28;20040;-80
2021/10/10 12:38:33;;;;;;;3.47;1.95;;;20.50;81.50;;;;;;5095506;28;20069;-81
2021/10/10 12:41:18;;;;;;;2.67;1.60;;;20.60;80.90;;;;;;5089440;28;20036;-81
2021/10/10 12:43:48;;;;;;;4.82;1.83;;;20.50;81.30;;;;;;5095393;28;20040;-79
2021/10/10 12:46:19;;;;;;;3.75;2.72;;;20.70;81.90;;;;;;5091054;28;20043;-82
2021/10/10 12:49:00;;;;;;;4.18;1.80;;;20.80;80.90;;;;;;5108787;27;20071;-81
2021/10/10 12:51:29;;;;;;;5.18;1.92;;;20.80;80.40;;;;;;5085002;28;20064;-80
2021/10/10 12:54:10;;;;;;;2.63;1.50;;;20.80;80.30;;;;;;5090799;27;20040;-80
2021/10/10 12:56:40;;;;;;;4.72;2.00;;;20.80;80.10;;;;;;5096242;28;20513;-79
2021/10/10 12:59:20;;;;;;;2.40;1.83;;;20.70;80.60;;;;;;5087300;27;20051;-78
2021/10/10 13:01:49;;;;;;;5.28;1.70;;;20.70;81.30;;;;;;5105021;27;20063;-79
2021/10/10 13:04:19;;;;;;;3.20;1.83;;;20.80;81.00;;;;;;5092081;27;20054;-79
2021/10/10 13:06:49;;;;;;;4.57;2.05;;;20.80;81.00;;;;;;5094312;27;20047;-80
2021/10/10 13:09:20;;;;;;;5.78;1.80;;;20.90;80.90;;;;;;5091903;28;20043;-79